createdAt,value
2023-02-28T00:00:21.249Z,-0.60
2023-02-28T00:03:08.895Z,-0.60
2023-02-28T00:05:56.426Z,-0.60
2023-02-28T00:08:44.034Z,-0.60
2023-02-28T00:11:32.761Z,-0.60
2023-02-28T00:14:20.429Z,-0.60
2023-02-28T00:17:07.861Z,-0.60
2023-02-28T00:19:55.314Z,-0.60
2023-02-28T00:22:44.980Z,-0.60
2023-02-28T00:25:32.491Z,-0.60
2023-02-28T00:28:21.612Z,-0.60
2023-02-28T00:31:09.325Z,-0.60
2023-02-28T00:33:56.989Z,-0.60
2023-02-28T00:36:47.295Z,-0.60
2023-02-28T00:39:36.906Z,-0.60
2023-02-28T00:42:24.695Z,-0.60
2023-02-28T00:45:13.954Z,-0.60
2023-02-28T00:48:01.712Z,-0.60
2023-02-28T00:50:51.512Z,-0.60
2023-02-28T00:53:38.977Z,-0.60
2023-02-28T00:56:26.562Z,-0.60
2023-02-28T00:59:14.441Z,-0.60
2023-02-28T01:02:03.427Z,-0.60
2023-02-28T01:04:51.518Z,-0.60
2023-02-28T01:07:39.478Z,-0.60
2023-02-28T01:10:28.059Z,-0.50
2023-02-28T01:13:16.301Z,-0.60
2023-02-28T01:16:03.697Z,-0.60
2023-02-28T01:18:52.622Z,-0.60
2023-02-28T01:21:40.167Z,-0.60
2023-02-28T01:24:27.850Z,-0.60
2023-02-28T01:27:15.601Z,-0.60
2023-02-28T01:30:03.441Z,-0.50
2023-02-28T01:32:52.585Z,-0.50
2023-02-28T01:35:41.686Z,-0.50
2023-02-28T01:38:29.869Z,-0.50
2023-02-28T01:41:20.167Z,-0.50
2023-02-28T01:44:09.882Z,-0.50
2023-02-28T01:46:57.186Z,-0.50
2023-02-28T01:49:45.266Z,-0.40
2023-02-28T01:52:36.143Z,-0.40
2023-02-28T01:55:29.546Z,-0.30
2023-02-28T01:58:19.309Z,-0.30
2023-02-28T02:01:07.719Z,-0.30
2023-02-28T02:03:57.710Z,-0.40
2023-02-28T02:06:49.735Z,-0.40
2023-02-28T02:09:38.767Z,-0.40
2023-02-28T02:12:35.548Z,-0.40
2023-02-28T02:15:28.843Z,-0.40
2023-02-28T02:18:25.436Z,-0.40
2023-02-28T02:21:49.223Z,-0.50
2023-02-28T02:25:03.983Z,-0.50
2023-02-28T02:28:18.317Z,-0.50
2023-02-28T02:31:30.619Z,-0.50
2023-02-28T02:34:39.225Z,-0.50
2023-02-28T02:37:33.512Z,-0.50
2023-02-28T02:40:24.105Z,-0.50
2023-02-28T02:43:17.754Z,-0.60
2023-02-28T02:46:10.610Z,-0.60
2023-02-28T02:49:01.431Z,-0.60
2023-02-28T02:51:51.855Z,-0.60
2023-02-28T02:54:42.541Z,-0.60
2023-02-28T02:57:36.379Z,-0.60
2023-02-28T03:00:28.398Z,-0.70
2023-02-28T03:03:21.751Z,-0.70
2023-02-28T03:06:09.435Z,-0.70
2023-02-28T03:09:01.969Z,-0.70
2023-02-28T03:11:50.680Z,-0.70
2023-02-28T03:14:50.799Z,-0.70
2023-02-28T03:17:59.877Z,-0.70
2023-02-28T03:20:58.221Z,-0.80
2023-02-28T03:23:55.503Z,-0.80
2023-02-28T03:26:50.931Z,-0.80
2023-02-28T03:29:42.478Z,-0.90
2023-02-28T03:32:35.411Z,-0.90
2023-02-28T03:35:25.257Z,-1.00
2023-02-28T03:38:19.216Z,-1.00
2023-02-28T03:41:11.802Z,-1.10
2023-02-28T03:44:04.835Z,-1.10
2023-02-28T03:46:57.843Z,-1.10
2023-02-28T03:49:51.382Z,-1.00
2023-02-28T03:52:45.636Z,-1.10
2023-02-28T03:55:39.552Z,-1.10
2023-02-28T03:58:33.387Z,-1.10
2023-02-28T04:01:28.475Z,-1.10
2023-02-28T04:04:18.075Z,-1.10
2023-02-28T04:07:07.722Z,-1.10
2023-02-28T04:09:55.104Z,-1.10
2023-02-28T04:12:42.669Z,-1.10
2023-02-28T04:15:30.357Z,-1.10
2023-02-28T04:18:19.123Z,-1.10
2023-02-28T04:21:07.297Z,-1.10
2023-02-28T04:23:55.428Z,-1.10
2023-02-28T04:26:45.414Z,-1.10
2023-02-28T04:29:34.014Z,-1.10
2023-02-28T04:32:21.576Z,-1.10
2023-02-28T04:35:12.479Z,-1.10
2023-02-28T04:38:00.121Z,-1.10
2023-02-28T04:40:47.696Z,-1.10
2023-02-28T04:43:35.227Z,-1.10
2023-02-28T04:46:22.936Z,-1.00
2023-02-28T04:49:12.873Z,-1.00
2023-02-28T04:52:02.072Z,-1.00
2023-02-28T04:54:49.829Z,-1.00
2023-02-28T04:57:37.314Z,-1.00
2023-02-28T05:00:25.464Z,-0.90
2023-02-28T05:03:13.390Z,-0.90
2023-02-28T05:06:01.111Z,-0.90
2023-02-28T05:08:49.979Z,-0.90
2023-02-28T05:11:38.322Z,-0.90
2023-02-28T05:14:26.666Z,-0.90
2023-02-28T05:17:14.411Z,-0.90
2023-02-28T05:20:14.656Z,-0.90
2023-02-28T05:23:04.445Z,-0.80
2023-02-28T05:25:54.040Z,-0.80
2023-02-28T05:28:41.607Z,-0.80
2023-02-28T05:31:29.309Z,-0.80
2023-02-28T05:34:17.217Z,-0.80
2023-02-28T05:37:04.851Z,-0.80
2023-02-28T05:39:52.557Z,-0.80
2023-02-28T05:42:41.644Z,-0.80
2023-02-28T05:45:29.408Z,-0.80
2023-02-28T05:48:17.859Z,-0.70
2023-02-28T05:51:06.482Z,-0.70
2023-02-28T05:53:54.299Z,-0.70
2023-02-28T05:56:45.042Z,-0.60
2023-02-28T05:59:34.142Z,-0.60
2023-02-28T06:02:22.009Z,-0.60
2023-02-28T06:05:14.869Z,-0.50
2023-02-28T06:08:02.485Z,-0.50
2023-02-28T06:10:50.146Z,-0.50
2023-02-28T06:13:37.647Z,-0.60
2023-02-28T06:16:27.353Z,-0.70
2023-02-28T06:19:16.097Z,-0.70
2023-02-28T06:22:03.704Z,-0.70
2023-02-28T06:24:51.388Z,-0.80
2023-02-28T06:27:39.199Z,-0.90
2023-02-28T06:30:28.117Z,-0.90
2023-02-28T06:33:17.236Z,-0.90
2023-02-28T06:36:05.596Z,-0.90
2023-02-28T06:38:55.842Z,-0.90
2023-02-28T06:41:54.627Z,-0.90
2023-02-28T06:44:44.042Z,-0.90
2023-02-28T06:47:33.636Z,-0.90
2023-02-28T06:50:22.857Z,-0.80
2023-02-28T06:53:10.554Z,-0.80
2023-02-28T06:55:58.318Z,-0.70
2023-02-28T06:58:49.412Z,-0.60
2023-02-28T07:01:36.893Z,-0.40
2023-02-28T07:04:25.020Z,-0.30
2023-02-28T07:07:13.802Z,-0.10
2023-02-28T07:10:01.638Z,0.10
2023-02-28T07:12:49.265Z,0.30
2023-02-28T07:15:39.340Z,0.50
2023-02-28T07:18:29.228Z,0.70
2023-02-28T07:21:17.448Z,0.90
2023-02-28T07:24:06.884Z,1.10
2023-02-28T07:26:54.204Z,1.30
2023-02-28T07:29:41.818Z,1.40
2023-02-28T07:32:29.449Z,1.50
2023-02-28T07:35:17.326Z,1.60
2023-02-28T07:38:05.563Z,1.70
2023-02-28T07:40:54.366Z,1.80
2023-02-28T07:43:42.225Z,2.00
2023-02-28T07:46:30.974Z,2.20
2023-02-28T07:49:18.687Z,2.40
2023-02-28T07:52:07.217Z,2.50
2023-02-28T07:54:54.976Z,2.60
2023-02-28T07:57:44.555Z,2.80
2023-02-28T08:00:33.144Z,3.00
2023-02-28T08:03:21.898Z,3.00
2023-02-28T08:06:16.968Z,2.90
2023-02-28T08:09:04.680Z,2.80
2023-02-28T08:11:52.290Z,2.70
2023-02-28T08:14:41.725Z,2.90
2023-02-28T08:17:29.370Z,3.10
2023-02-28T08:20:16.692Z,3.30
2023-02-28T08:23:04.413Z,3.20
2023-02-28T08:25:56.207Z,3.40
2023-02-28T08:28:43.550Z,3.50
2023-02-28T08:31:32.629Z,3.60
2023-02-28T08:34:20.159Z,3.50
2023-02-28T08:37:07.522Z,3.40
2023-02-28T08:39:56.507Z,3.00
2023-02-28T08:42:44.000Z,3.10
2023-02-28T08:45:31.757Z,3.20
2023-02-28T08:48:21.006Z,3.50
2023-02-28T08:51:11.220Z,3.70
2023-02-28T08:54:01.623Z,3.80
2023-02-28T08:56:49.383Z,3.80
2023-02-28T08:59:37.605Z,3.90
2023-02-28T09:02:25.382Z,4.10
2023-02-28T09:05:14.296Z,4.20
2023-02-28T09:08:02.042Z,4.30
2023-02-28T09:10:49.511Z,4.40
2023-02-28T09:13:37.074Z,4.10
2023-02-28T09:16:24.550Z,3.90
2023-02-28T09:19:13.251Z,4.00
2023-02-28T09:22:01.943Z,4.10
2023-02-28T09:24:49.475Z,4.40
2023-02-28T09:27:38.188Z,4.30
2023-02-28T09:30:25.495Z,4.00
2023-02-28T09:33:13.152Z,4.10
2023-02-28T09:36:02.298Z,4.10
2023-02-28T09:38:52.470Z,4.10
2023-02-28T09:41:48.490Z,4.00
2023-02-28T09:44:41.099Z,4.00
2023-02-28T09:47:34.243Z,4.10
2023-02-28T09:50:34.511Z,4.30
2023-02-28T09:53:28.143Z,4.40
2023-02-28T09:56:26.844Z,4.80
2023-02-28T09:59:27.860Z,5.30
2023-02-28T10:02:36.338Z,5.80
2023-02-28T10:05:27.518Z,6.20
2023-02-28T10:08:18.075Z,6.40
2023-02-28T10:11:08.889Z,6.60
2023-02-28T10:14:06.799Z,6.50
2023-02-28T10:16:57.713Z,6.60
2023-02-28T10:19:54.050Z,6.40
2023-02-28T10:22:52.434Z,6.30
2023-02-28T10:25:41.060Z,6.60
2023-02-28T10:28:31.877Z,6.70
2023-02-28T10:31:24.116Z,6.70
2023-02-28T10:34:14.947Z,6.40
2023-02-28T10:37:08.396Z,5.80
2023-02-28T10:39:56.753Z,5.60
2023-02-28T10:42:44.269Z,5.60
2023-02-28T10:45:35.834Z,5.60
2023-02-28T10:48:34.949Z,5.40
2023-02-28T10:51:25.049Z,5.40
2023-02-28T10:54:21.177Z,5.40
2023-02-28T10:57:25.484Z,5.30
2023-02-28T11:00:19.891Z,5.10
2023-02-28T11:03:26.451Z,5.10
2023-02-28T11:06:20.696Z,5.10
2023-02-28T11:09:22.840Z,5.20
2023-02-28T11:12:25.481Z,5.50
2023-02-28T11:15:25.858Z,6.00
2023-02-28T11:18:25.004Z,6.50
2023-02-28T11:21:21.095Z,6.60
2023-02-28T11:24:18.526Z,6.90
2023-02-28T11:27:06.219Z,7.00
2023-02-28T11:29:53.602Z,6.80
2023-02-28T11:32:51.074Z,6.50
2023-02-28T11:35:41.713Z,6.30
2023-02-28T11:38:30.855Z,5.80
2023-02-28T11:41:44.078Z,5.40
2023-02-28T11:44:45.970Z,5.20
2023-02-28T11:47:40.720Z,5.00
2023-02-28T11:50:44.189Z,4.60
2023-02-28T11:53:52.759Z,4.50
2023-02-28T11:56:45.865Z,4.70
2023-02-28T11:59:54.379Z,5.00
2023-02-28T12:02:56.801Z,5.60
2023-02-28T12:05:47.891Z,6.10
2023-02-28T12:08:56.357Z,6.70
2023-02-28T12:11:53.415Z,7.40
2023-02-28T12:14:59.519Z,7.50
2023-02-28T12:18:05.652Z,7.20
2023-02-28T12:21:00.986Z,7.00
2023-02-28T12:24:20.916Z,7.10
2023-02-28T12:27:12.390Z,7.20
2023-02-28T12:30:04.662Z,7.50
2023-02-28T12:32:56.493Z,7.70
2023-02-28T12:35:50.356Z,7.90
2023-02-28T12:38:43.338Z,8.10
2023-02-28T12:41:41.259Z,7.80
2023-02-28T12:44:33.422Z,7.20
2023-02-28T12:47:21.243Z,7.00
2023-02-28T12:50:12.807Z,7.20
2023-02-28T12:53:05.642Z,7.20
2023-02-28T12:56:00.154Z,7.60
2023-02-28T12:58:53.873Z,8.10
2023-02-28T13:02:12.836Z,8.00
2023-02-28T13:05:43.246Z,8.10
2023-02-28T13:09:01.372Z,8.00
2023-02-28T13:11:50.439Z,7.70
2023-02-28T13:14:40.543Z,7.30
2023-02-28T13:17:28.097Z,7.10
2023-02-28T13:20:21.533Z,6.90
2023-02-28T13:23:57.963Z,7.20
2023-02-28T13:27:25.541Z,7.10
2023-02-28T13:30:50.544Z,7.20
2023-02-28T13:34:00.504Z,7.30
2023-02-28T13:36:48.045Z,7.40
2023-02-28T13:39:50.129Z,7.80
2023-02-28T13:42:39.074Z,7.70
2023-02-28T13:45:30.985Z,8.00
2023-02-28T13:48:21.566Z,8.10
2023-02-28T13:51:41.949Z,8.30
2023-02-28T13:54:41.820Z,8.50
2023-02-28T13:57:44.721Z,8.70
2023-02-28T14:00:47.925Z,8.90
2023-02-28T14:03:47.542Z,8.80
2023-02-28T14:06:37.434Z,8.90
2023-02-28T14:09:29.481Z,9.00
2023-02-28T14:12:55.666Z,9.00
2023-02-28T14:15:58.562Z,9.10
2023-02-28T14:18:53.253Z,8.90
2023-02-28T14:21:46.005Z,9.00
2023-02-28T14:25:13.868Z,9.10
2023-02-28T14:28:12.956Z,9.20
2023-02-28T14:31:09.066Z,9.10
2023-02-28T14:34:15.520Z,8.90
2023-02-28T14:37:05.569Z,8.60
2023-02-28T14:39:54.618Z,8.90
2023-02-28T14:42:44.972Z,9.20
2023-02-28T14:45:34.090Z,9.40
2023-02-28T14:48:24.543Z,9.50
2023-02-28T14:51:13.247Z,9.70
2023-02-28T14:54:03.475Z,9.90
2023-02-28T14:56:53.117Z,9.90
2023-02-28T14:59:40.967Z,9.90
2023-02-28T15:02:32.156Z,10.00
2023-02-28T15:05:29.173Z,10.10
2023-02-28T15:08:18.396Z,10.10
2023-02-28T15:11:09.778Z,10.20
2023-02-28T15:13:59.067Z,9.90
2023-02-28T15:16:48.243Z,9.80
2023-02-28T15:19:41.627Z,9.60
2023-02-28T15:22:35.666Z,9.10
2023-02-28T15:25:24.438Z,8.30
2023-02-28T15:28:17.747Z,7.50
2023-02-28T15:31:23.904Z,6.90
2023-02-28T15:34:23.248Z,6.20
2023-02-28T15:37:32.011Z,5.90
2023-02-28T15:40:26.032Z,5.50
2023-02-28T15:43:18.403Z,5.20
2023-02-28T15:46:10.671Z,5.00
2023-02-28T15:48:59.185Z,4.80
2023-02-28T15:51:46.843Z,4.60
2023-02-28T15:54:36.831Z,4.40
2023-02-28T15:57:27.604Z,4.10
2023-02-28T16:00:18.030Z,4.00
2023-02-28T16:03:28.554Z,3.80
2023-02-28T16:06:38.429Z,3.60
2023-02-28T16:09:25.914Z,3.40
2023-02-28T16:12:14.716Z,3.30
2023-02-28T16:15:07.902Z,3.10
2023-02-28T16:17:56.844Z,3.00
2023-02-28T16:20:45.812Z,2.80
2023-02-28T16:23:33.396Z,2.60
2023-02-28T16:26:24.898Z,2.40
2023-02-28T16:29:18.423Z,2.30
2023-02-28T16:32:07.889Z,2.10
2023-02-28T16:34:55.809Z,1.90
2023-02-28T16:37:44.609Z,1.80
2023-02-28T16:40:37.377Z,1.70
2023-02-28T16:43:27.366Z,1.50
2023-02-28T16:46:15.006Z,1.30
2023-02-28T16:49:02.477Z,1.20
2023-02-28T16:51:49.939Z,1.00
2023-02-28T16:54:38.769Z,0.90
2023-02-28T16:57:26.422Z,0.70
2023-02-28T17:00:16.083Z,0.60
2023-02-28T17:03:05.751Z,0.50
2023-02-28T17:05:54.556Z,0.40
2023-02-28T17:08:42.573Z,0.20
2023-02-28T17:11:32.116Z,0.10
2023-02-28T17:14:19.930Z,0.00
2023-02-28T17:17:08.093Z,-0.10
2023-02-28T17:19:55.764Z,-0.20
2023-02-28T17:22:43.183Z,-0.30
2023-02-28T17:25:30.548Z,-0.40
2023-02-28T17:28:19.329Z,-0.50
2023-02-28T17:31:07.348Z,-0.60
2023-02-28T17:33:55.476Z,-0.70
2023-02-28T17:36:43.013Z,-0.70
2023-02-28T17:39:31.914Z,-0.80
2023-02-28T17:42:21.152Z,-0.80
2023-02-28T17:45:10.786Z,-0.90
2023-02-28T17:47:58.622Z,-0.90
2023-02-28T17:50:46.130Z,-1.00
2023-02-28T17:53:33.575Z,-1.00
2023-02-28T17:56:24.134Z,-1.00
2023-02-28T17:59:13.702Z,-1.10
2023-02-28T18:02:02.592Z,-1.10
2023-02-28T18:04:50.041Z,-1.10
2023-02-28T18:07:39.326Z,-1.10
2023-02-28T18:10:28.438Z,-1.10
2023-02-28T18:13:16.105Z,-1.00
2023-02-28T18:16:03.531Z,-1.00
2023-02-28T18:18:53.320Z,-1.00
2023-02-28T18:21:41.042Z,-1.00
2023-02-28T18:24:28.886Z,-1.10
2023-02-28T18:27:16.425Z,-1.10
2023-02-28T18:30:07.394Z,-1.20
2023-02-28T18:32:55.335Z,-1.20
2023-02-28T18:35:44.805Z,-1.30
2023-02-28T18:38:32.603Z,-1.40
2023-02-28T18:41:21.608Z,-1.50
2023-02-28T18:44:19.139Z,-1.50
2023-02-28T18:47:07.136Z,-1.60
2023-02-28T18:49:54.658Z,-1.70
2023-02-28T18:52:43.319Z,-1.80
2023-02-28T18:55:32.781Z,-1.90
2023-02-28T18:58:20.637Z,-1.90
2023-02-28T19:01:18.656Z,-1.90
2023-02-28T19:04:06.833Z,-1.90
2023-02-28T19:06:54.429Z,-1.90
2023-02-28T19:09:43.310Z,-2.00
2023-02-28T19:12:34.539Z,-2.10
2023-02-28T19:15:22.423Z,-2.20
2023-02-28T19:18:10.174Z,-2.30
2023-02-28T19:20:57.859Z,-2.30
2023-02-28T19:23:45.856Z,-2.40
2023-02-28T19:26:35.100Z,-2.50
2023-02-28T19:29:23.021Z,-2.50
2023-02-28T19:32:10.894Z,-2.50
2023-02-28T19:34:58.621Z,-2.40
2023-02-28T19:37:46.139Z,-2.40
2023-02-28T19:40:33.489Z,-2.40
2023-02-28T19:43:22.486Z,-2.50
2023-02-28T19:46:12.040Z,-2.50
2023-02-28T19:48:59.533Z,-2.60
2023-02-28T19:51:47.065Z,-2.70
2023-02-28T19:54:34.926Z,-2.70
2023-02-28T19:57:22.364Z,-2.80
2023-02-28T20:00:14.105Z,-2.80
2023-02-28T20:03:02.336Z,-2.80
2023-02-28T20:06:00.802Z,-2.90
2023-02-28T20:08:48.106Z,-2.80
2023-02-28T20:11:35.957Z,-2.80
2023-02-28T20:14:23.494Z,-2.80
2023-02-28T20:17:12.541Z,-2.80
2023-02-28T20:19:59.948Z,-2.90
2023-02-28T20:22:47.490Z,-2.90
2023-02-28T20:25:35.265Z,-2.90
2023-02-28T20:28:22.579Z,-3.00
2023-02-28T20:31:14.552Z,-3.00
2023-02-28T20:34:03.521Z,-3.10
2023-02-28T20:36:51.183Z,-3.20
2023-02-28T20:39:38.932Z,-3.30
2023-02-28T20:42:26.480Z,-3.30
2023-02-28T20:45:13.654Z,-3.40
2023-02-28T20:48:01.009Z,-3.40
2023-02-28T20:50:51.855Z,-3.50
2023-02-28T20:53:39.831Z,-3.50
2023-02-28T20:56:27.360Z,-3.60
2023-02-28T20:59:15.132Z,-3.60
2023-02-28T21:02:03.059Z,-3.70
2023-02-28T21:04:50.303Z,-3.70
2023-02-28T21:07:39.134Z,-3.80
2023-02-28T21:10:26.459Z,-3.80
2023-02-28T21:13:13.962Z,-3.90
2023-02-28T21:16:05.339Z,-3.90
2023-02-28T21:18:54.440Z,-3.90
2023-02-28T21:21:44.282Z,-3.90
2023-02-28T21:24:33.301Z,-4.00
2023-02-28T21:27:21.143Z,-4.00
2023-02-28T21:30:10.601Z,-4.00
2023-02-28T21:32:58.428Z,-4.10
2023-02-28T21:35:46.110Z,-4.10
2023-02-28T21:38:34.957Z,-4.20
2023-02-28T21:41:25.191Z,-4.20
2023-02-28T21:44:18.428Z,-4.30
2023-02-28T21:47:06.706Z,-4.30
2023-02-28T21:49:54.303Z,-4.30
2023-02-28T21:52:42.471Z,-4.30
2023-02-28T21:55:29.975Z,-4.30
2023-02-28T21:58:18.748Z,-4.40
2023-02-28T22:01:07.377Z,-4.50
2023-02-28T22:03:54.922Z,-4.50
2023-02-28T22:06:42.658Z,-4.50
2023-02-28T22:09:30.452Z,-4.50
2023-02-28T22:12:18.109Z,-4.50
2023-02-28T22:15:08.315Z,-4.60
2023-02-28T22:17:55.918Z,-4.60
2023-02-28T22:20:43.398Z,-4.60
2023-02-28T22:23:31.195Z,-4.60
2023-02-28T22:26:21.350Z,-4.60
2023-02-28T22:29:09.067Z,-4.50
2023-02-28T22:31:57.849Z,-4.50
2023-02-28T22:34:45.589Z,-4.50
2023-02-28T22:37:33.195Z,-4.40
2023-02-28T22:40:20.972Z,-4.50
2023-02-28T22:43:09.206Z,-4.50
2023-02-28T22:45:56.870Z,-4.60
2023-02-28T22:48:48.008Z,-4.60
2023-02-28T22:51:35.845Z,-4.80
2023-02-28T22:54:23.584Z,-4.90
2023-02-28T22:57:11.910Z,-5.00
2023-02-28T22:59:59.366Z,-5.00
2023-02-28T23:02:47.353Z,-5.00
2023-02-28T23:05:36.487Z,-5.00
2023-02-28T23:08:23.911Z,-5.00
2023-02-28T23:11:12.044Z,-5.10
2023-02-28T23:14:00.001Z,-5.10
2023-02-28T23:16:49.676Z,-5.10
2023-02-28T23:19:37.544Z,-5.10
2023-02-28T23:22:26.322Z,-5.20
2023-02-28T23:25:14.290Z,-5.10
2023-02-28T23:28:01.786Z,-5.20
2023-02-28T23:30:49.439Z,-5.20
2023-02-28T23:33:36.974Z,-5.30
2023-02-28T23:36:25.181Z,-5.30
2023-02-28T23:39:16.627Z,-5.30
2023-02-28T23:42:04.259Z,-5.20
2023-02-28T23:44:51.939Z,-5.20
2023-02-28T23:47:39.356Z,-5.10
2023-02-28T23:50:26.778Z,-5.20
2023-02-28T23:53:14.073Z,-5.20
2023-02-28T23:56:03.059Z,-5.20
2023-02-28T23:58:51.413Z,-5.20
